Time;durP1;ratioP1;P1;durP2;ratioP2;P2;SDS_P1;SDS_P2;PMS_P1;PMS_P2;Temp;Humidity;BMP_temperature;BMP_pressure;BME280_temperature;BME280_humidity;BME280_pressure;Samples;Min_cycle;Max_cycle;Signal;HPM_P1;HPM_P2
2021/07/17 00:01:54;;;;;;;5.30;2.33;;;22.40;67.40;;;;;;4881302;29;20041;-63
2021/07/17 00:04:19;;;;;;;5.22;2.40;;;22.40;67.40;;;;;;4881555;29;20040;-63
2021/07/17 00:06:45;;;;;;;5.93;2.55;;;22.40;67.40;;;;;;4881318;29;20482;-63
2021/07/17 00:09:10;;;;;;;7.50;2.72;;;22.30;67.40;;;;;;4881261;29;20021;-63
2021/07/17 00:11:36;;;;;;;6.15;2.58;;;22.40;67.40;;;;;;4881119;29;20080;-63
2021/07/17 00:14:02;;;;;;;5.65;2.60;;;22.30;67.40;;;;;;4881257;29;20032;-63
2021/07/17 00:16:27;;;;;;;8.00;2.90;;;22.30;67.40;;;;;;4881168;29;20069;-63
2021/07/17 00:18:56;;;;;;;5.22;2.38;;;22.30;67.40;;;;;;4881210;29;20017;-63
2021/07/17 00:21:22;;;;;;;6.95;2.40;;;22.40;67.40;;;;;;4881184;29;20036;-63
2021/07/17 00:23:49;;;;;;;5.40;2.35;;;22.40;67.40;;;;;;4881044;29;20112;-63
2021/07/17 00:26:14;;;;;;;5.03;2.33;;;22.30;67.40;;;;;;4883490;29;20040;-63
2021/07/17 00:28:40;;;;;;;6.90;2.60;;;22.40;67.40;;;;;;4886149;29;20029;-63
2021/07/17 00:31:05;;;;;;;5.45;2.35;;;22.30;67.40;;;;;;4884420;29;20027;-63
2021/07/17 00:33:31;;;;;;;7.18;2.55;;;22.30;67.40;;;;;;4881923;29;20021;-64
2021/07/17 00:35:56;;;;;;;7.30;2.40;;;22.30;67.40;;;;;;4881602;29;20397;-63
2021/07/17 00:38:22;;;;;;;6.65;2.70;;;22.30;67.50;;;;;;4882143;29;20021;-63
2021/07/17 00:40:47;;;;;;;7.00;2.63;;;22.40;67.50;;;;;;4881045;29;20047;-63
2021/07/17 00:43:13;;;;;;;6.18;2.67;;;22.30;67.50;;;;;;4882179;29;20025;-64
2021/07/17 00:45:39;;;;;;;7.10;2.72;;;22.30;67.40;;;;;;4881428;29;20037;-63
2021/07/17 00:48:04;;;;;;;5.93;2.50;;;22.30;67.40;;;;;;4882353;29;20481;-63
2021/07/17 00:50:30;;;;;;;6.20;2.55;;;22.30;67.50;;;;;;4882699;29;20043;-63
2021/07/17 00:52:56;;;;;;;6.40;2.65;;;22.30;67.40;;;;;;4882122;29;20117;-63
2021/07/17 00:55:25;;;;;;;6.47;2.38;;;22.30;67.50;;;;;;4880698;29;20521;-63
2021/07/17 00:57:52;;;;;;;6.30;2.40;;;22.30;67.50;;;;;;4882714;29;20121;-63
2021/07/17 01:00:18;;;;;;;7.82;2.55;;;22.30;67.40;;;;;;4883819;29;20501;-63
2021/07/17 01:02:50;;;;;;;4.47;2.13;;;22.30;67.50;;;;;;4880435;29;20053;-63
2021/07/17 01:05:17;;;;;;;6.15;2.70;;;22.30;67.50;;;;;;4880444;29;20088;-63
2021/07/17 01:07:45;;;;;;;5.38;2.80;;;22.30;67.50;;;;;;4880563;29;20060;-63
2021/07/17 01:10:11;;;;;;;5.72;2.63;;;22.30;67.50;;;;;;4880877;29;20433;-63
2021/07/17 01:12:37;;;;;;;7.30;2.75;;;22.30;67.50;;;;;;4887873;29;20385;-64
2021/07/17 01:15:04;;;;;;;7.40;2.38;;;22.30;67.50;;;;;;4885897;29;20044;-63
2021/07/17 01:17:29;;;;;;;6.30;2.22;;;22.20;67.50;;;;;;4884366;29;20021;-63
2021/07/17 01:19:55;;;;;;;5.63;2.45;;;22.30;67.50;;;;;;4880391;29;20033;-63
2021/07/17 01:22:21;;;;;;;6.57;2.45;;;22.30;67.50;;;;;;4880103;29;20073;-64
2021/07/17 01:24:47;;;;;;;5.25;2.58;;;22.20;67.50;;;;;;4880258;29;20036;-64
2021/07/17 01:27:15;;;;;;;8.65;2.67;;;22.30;67.50;;;;;;4880112;29;20048;-63
2021/07/17 01:29:40;;;;;;;6.38;2.58;;;22.30;67.50;;;;;;4880209;29;20025;-63
2021/07/17 01:32:07;;;;;;;5.82;2.10;;;22.30;67.50;;;;;;4879926;29;20093;-63
2021/07/17 01:34:33;;;;;;;6.68;2.85;;;22.20;67.50;;;;;;4880095;29;20088;-63
2021/07/17 01:36:58;;;;;;;6.35;2.60;;;22.30;67.50;;;;;;4880016;29;20042;-63
2021/07/17 01:39:24;;;;;;;5.68;2.30;;;22.20;67.50;;;;;;4880082;29;20027;-64
2021/07/17 01:41:49;;;;;;;6.80;2.88;;;22.20;67.50;;;;;;4879984;29;20029;-63
2021/07/17 01:44:15;;;;;;;5.55;2.47;;;22.20;67.50;;;;;;4878632;29;20033;-63
2021/07/17 01:46:42;;;;;;;7.03;2.72;;;22.30;67.50;;;;;;4879776;29;20087;-63
2021/07/17 01:49:08;;;;;;;8.07;2.95;;;22.20;67.50;;;;;;4879950;29;20481;-63
2021/07/17 01:51:33;;;;;;;6.22;2.70;;;22.20;67.50;;;;;;4879154;29;20089;-63
2021/07/17 01:54:00;;;;;;;5.60;2.42;;;22.20;67.50;;;;;;4879547;29;20037;-63
2021/07/17 01:56:26;;;;;;;5.78;2.28;;;22.20;67.50;;;;;;4879593;29;20733;-63
2021/07/17 01:58:55;;;;;;;5.47;2.58;;;22.20;67.50;;;;;;4879912;29;20036;-63
2021/07/17 02:01:24;;;;;;;7.53;3.15;;;22.20;67.50;;;;;;4879545;29;20040;-63
2021/07/17 02:03:50;;;;;;;8.60;2.78;;;22.20;67.50;;;;;;4879537;29;20041;-63
2021/07/17 02:06:23;;;;;;;6.55;2.20;;;22.20;67.50;;;;;;4879746;29;20565;-63
2021/07/17 02:08:48;;;;;;;5.30;2.38;;;22.20;67.50;;;;;;4879890;29;20082;-63
2021/07/17 02:11:14;;;;;;;7.43;2.90;;;22.20;67.50;;;;;;4879722;29;20562;-63
2021/07/17 02:13:40;;;;;;;6.53;2.30;;;22.20;67.50;;;;;;4879654;29;20071;-63
2021/07/17 02:16:06;;;;;;;4.93;2.63;;;22.20;67.50;;;;;;4879518;29;20069;-63
2021/07/17 02:18:33;;;;;;;6.40;2.58;;;22.20;67.50;;;;;;4879783;29;20129;-63
2021/07/17 02:21:00;;;;;;;8.23;2.70;;;22.20;67.50;;;;;;4879689;29;20037;-63
2021/07/17 02:23:26;;;;;;;7.18;2.90;;;22.20;67.50;;;;;;4880010;29;20044;-63
2021/07/17 02:25:52;;;;;;;5.55;2.60;;;22.20;67.50;;;;;;4888194;29;20393;-63
2021/07/17 02:28:18;;;;;;;7.03;2.38;;;22.20;67.50;;;;;;4885548;29;20032;-63
2021/07/17 02:30:43;;;;;;;6.93;2.88;;;22.20;67.50;;;;;;4889071;29;20419;-63
2021/07/17 02:33:10;;;;;;;6.53;2.50;;;22.20;67.50;;;;;;4880132;29;20509;-63
2021/07/17 02:35:35;;;;;;;6.78;2.78;;;22.20;67.50;;;;;;4879866;29;20022;-63
2021/07/17 02:38:01;;;;;;;7.97;2.95;;;22.20;67.50;;;;;;4879494;29;20081;-64
2021/07/17 02:40:26;;;;;;;6.00;2.65;;;22.20;67.50;;;;;;4879693;29;20032;-63
2021/07/17 02:42:52;;;;;;;5.75;2.17;;;22.20;67.50;;;;;;4879790;29;20104;-64
2021/07/17 02:45:18;;;;;;;5.15;2.47;;;22.20;67.50;;;;;;4879771;29;20076;-63
2021/07/17 02:47:43;;;;;;;6.40;2.80;;;22.20;67.50;;;;;;4879412;29;20037;-63
2021/07/17 02:50:10;;;;;;;7.57;2.83;;;22.10;67.50;;;;;;4879637;29;20029;-63
2021/07/17 02:52:35;;;;;;;4.95;2.42;;;22.20;67.50;;;;;;4879183;29;20611;-63
2021/07/17 02:55:01;;;;;;;6.45;2.78;;;22.20;67.50;;;;;;4879574;29;20021;-63
2021/07/17 02:57:27;;;;;;;4.45;2.40;;;22.20;67.60;;;;;;4879614;29;20032;-63
2021/07/17 02:59:53;;;;;;;7.30;2.85;;;22.20;67.50;;;;;;4879841;29;20021;-63
2021/07/17 03:02:18;;;;;;;5.47;2.50;;;22.20;67.50;;;;;;4879217;29;20109;-63
2021/07/17 03:04:44;;;;;;;5.90;2.50;;;22.20;67.50;;;;;;4881859;29;20033;-63
2021/07/17 03:07:09;;;;;;;8.45;2.70;;;22.20;67.50;;;;;;4882746;29;20044;-63
2021/07/17 03:09:35;;;;;;;5.50;2.17;;;22.10;67.50;;;;;;4882651;29;20104;-63
2021/07/17 03:12:00;;;;;;;5.88;2.55;;;22.10;67.50;;;;;;4882879;29;20060;-63
2021/07/17 03:14:26;;;;;;;7.40;2.90;;;22.10;67.50;;;;;;4882747;29;20029;-63
2021/07/17 03:16:51;;;;;;;6.20;2.63;;;22.10;67.50;;;;;;4882562;29;20391;-63
2021/07/17 03:19:17;;;;;;;6.20;2.42;;;22.10;67.60;;;;;;4882751;29;20032;-63
2021/07/17 03:21:42;;;;;;;5.53;2.60;;;22.10;67.50;;;;;;4882524;29;20029;-63
2021/07/17 03:24:08;;;;;;;6.50;2.65;;;22.10;67.50;;;;;;4881193;29;20025;-63
2021/07/17 03:26:34;;;;;;;5.85;2.47;;;22.10;67.50;;;;;;4882165;29;20037;-63
2021/07/17 03:29:00;;;;;;;6.13;2.70;;;22.10;67.50;;;;;;4881970;29;20021;-63
2021/07/17 03:31:30;;;;;;;7.10;2.70;;;22.10;67.50;;;;;;4882248;29;20029;-63
2021/07/17 03:33:57;;;;;;;7.63;2.60;;;22.10;67.50;;;;;;4881903;29;20029;-63
2021/07/17 03:36:22;;;;;;;6.25;3.00;;;22.10;67.50;;;;;;4882211;29;20387;-63
2021/07/17 03:38:48;;;;;;;5.65;2.50;;;22.10;67.50;;;;;;4882138;29;20025;-63
2021/07/17 03:41:14;;;;;;;7.07;2.40;;;22.10;67.60;;;;;;4889105;29;20052;-63
2021/07/17 03:43:40;;;;;;;6.15;2.58;;;22.10;67.50;;;;;;4882513;29;20085;-63
2021/07/17 03:46:06;;;;;;;5.60;2.40;;;22.10;67.50;;;;;;4882438;29;20446;-63
2021/07/17 03:48:31;;;;;;;5.15;2.65;;;22.10;67.50;;;;;;4882455;29;20026;-63
2021/07/17 03:50:57;;;;;;;6.18;2.58;;;22.10;67.60;;;;;;4882258;29;20695;-63
2021/07/17 03:53:22;;;;;;;7.55;2.97;;;22.10;67.50;;;;;;4882324;29;20029;-63
2021/07/17 03:55:48;;;;;;;7.43;2.47;;;22.10;67.60;;;;;;4881968;29;20037;-63
2021/07/17 03:58:13;;;;;;;7.10;2.90;;;22.10;67.60;;;;;;4882387;29;20049;-63
2021/07/17 04:00:39;;;;;;;5.90;2.63;;;22.10;67.50;;;;;;4880544;29;20495;-63
2021/07/17 04:03:04;;;;;;;5.95;2.55;;;22.10;67.50;;;;;;4881629;29;20409;-63
2021/07/17 04:05:31;;;;;;;8.13;3.05;;;22.10;67.60;;;;;;4881872;29;20025;-63
2021/07/17 04:07:57;;;;;;;4.90;2.40;;;22.10;67.60;;;;;;4881955;29;20033;-63
2021/07/17 04:10:23;;;;;;;4.88;2.33;;;22.10;67.60;;;;;;4881517;29;20036;-63
2021/07/17 04:12:48;;;;;;;4.60;2.25;;;22.10;67.60;;;;;;4881167;29;20037;-63
2021/07/17 04:15:14;;;;;;;5.57;2.42;;;22.10;67.60;;;;;;4880860;29;20036;-63
2021/07/17 04:17:40;;;;;;;5.82;2.85;;;22.10;67.60;;;;;;4881118;29;20025;-63
2021/07/17 04:20:07;;;;;;;7.53;2.75;;;22.00;67.60;;;;;;4881282;29;20036;-63
2021/07/17 04:22:33;;;;;;;5.07;2.42;;;22.10;67.60;;;;;;4880088;29;20108;-63
2021/07/17 04:24:59;;;;;;;6.72;2.80;;;22.10;67.60;;;;;;4881489;29;20035;-63
2021/07/17 04:27:24;;;;;;;5.35;2.40;;;22.00;67.60;;;;;;4881435;29;20029;-63
2021/07/17 04:29:50;;;;;;;7.65;2.63;;;22.10;67.60;;;;;;4881166;29;20029;-63
2021/07/17 04:32:16;;;;;;;6.45;3.13;;;22.10;67.60;;;;;;4881047;29;20040;-63
2021/07/17 04:34:41;;;;;;;8.75;2.95;;;22.10;67.60;;;;;;4881279;29;20104;-64
2021/07/17 04:37:07;;;;;;;6.35;2.58;;;22.00;67.60;;;;;;4880956;29;20033;-63
2021/07/17 04:39:32;;;;;;;5.13;2.20;;;22.00;67.60;;;;;;4881147;29;20081;-63
2021/07/17 04:41:58;;;;;;;6.60;2.60;;;22.00;67.60;;;;;;4883835;29;20037;-63
2021/07/17 04:44:23;;;;;;;6.57;2.80;;;22.10;67.60;;;;;;4890126;29;20075;-63
2021/07/17 04:46:49;;;;;;;6.78;2.53;;;22.10;67.60;;;;;;4886757;29;20403;-63
2021/07/17 04:49:15;;;;;;;6.05;2.70;;;22.10;67.60;;;;;;4887511;29;20520;-64
2021/07/17 04:51:40;;;;;;;7.38;2.60;;;22.00;67.60;;;;;;4885115;29;20043;-63
2021/07/17 04:54:06;;;;;;;5.88;2.95;;;22.00;67.50;;;;;;4892552;29;20390;-63
2021/07/17 04:56:31;;;;;;;9.13;2.60;;;22.10;67.60;;;;;;4891279;29;20484;-63
2021/07/17 04:58:56;;;;;;;6.05;3.05;;;22.10;67.50;;;;;;4881505;29;20519;-63
2021/07/17 05:01:22;;;;;;;6.80;2.80;;;22.10;67.50;;;;;;4880504;29;20037;-63
2021/07/17 05:03:48;;;;;;;7.05;2.90;;;22.00;67.50;;;;;;4880378;29;20092;-63
2021/07/17 05:06:13;;;;;;;5.15;2.30;;;22.00;67.60;;;;;;4880628;29;20037;-63
2021/07/17 05:08:39;;;;;;;6.93;2.95;;;22.00;67.50;;;;;;4880479;29;20041;-63
2021/07/17 05:11:04;;;;;;;5.50;2.40;;;22.10;67.50;;;;;;4880285;29;20025;-63
2021/07/17 05:13:30;;;;;;;7.25;2.92;;;22.00;67.50;;;;;;4880584;29;20035;-63
2021/07/17 05:15:56;;;;;;;5.85;2.67;;;22.00;67.50;;;;;;4880467;29;20389;-64
2021/07/17 05:18:21;;;;;;;4.97;2.45;;;22.10;67.50;;;;;;4880492;29;20040;-63
2021/07/17 05:20:48;;;;;;;7.18;2.80;;;22.00;67.50;;;;;;4880686;29;20021;-63
2021/07/17 05:23:14;;;;;;;6.65;2.80;;;22.00;67.50;;;;;;4880943;29;20037;-63
2021/07/17 05:25:40;;;;;;;5.13;2.22;;;22.00;67.50;;;;;;4881188;29;20029;-63
2021/07/17 05:28:05;;;;;;;6.38;2.90;;;22.00;67.50;;;;;;4882788;29;20481;-63
2021/07/17 05:30:32;;;;;;;11.13;4.82;;;22.00;67.50;;;;;;4880496;29;20565;-63
2021/07/17 05:32:57;;;;;;;5.75;2.85;;;22.00;67.50;;;;;;4880922;29;20092;-63
2021/07/17 05:35:27;;;;;;;8.07;2.88;;;22.00;67.50;;;;;;4880275;29;20029;-63
2021/07/17 05:37:53;;;;;;;6.45;2.90;;;22.00;67.50;;;;;;4880352;29;20405;-63
2021/07/17 05:40:19;;;;;;;5.78;2.90;;;22.00;67.50;;;;;;4880111;29;20029;-63
2021/07/17 05:42:45;;;;;;;7.13;2.70;;;22.00;67.50;;;;;;4880633;29;20401;-63
2021/07/17 05:45:11;;;;;;;6.72;2.85;;;22.00;67.50;;;;;;4879962;29;20033;-63
2021/07/17 05:47:37;;;;;;;6.70;2.90;;;22.00;67.50;;;;;;4880145;29;20044;-63
2021/07/17 05:50:03;;;;;;;6.53;2.85;;;22.00;67.50;;;;;;4880479;29;20029;-63
2021/07/17 05:52:28;;;;;;;5.97;2.75;;;22.00;67.50;;;;;;4880052;29;20044;-63
2021/07/17 05:54:54;;;;;;;4.38;2.13;;;22.00;67.50;;;;;;4880099;29;20025;-63
2021/07/17 05:57:20;;;;;;;6.22;2.55;;;22.10;67.50;;;;;;4880933;29;20151;-63
2021/07/17 05:59:45;;;;;;;4.28;2.25;;;22.00;67.50;;;;;;4880779;29;20474;-63
2021/07/17 06:02:10;;;;;;;5.70;2.85;;;22.10;67.40;;;;;;4881175;29;20529;-63
2021/07/17 06:04:36;;;;;;;6.55;2.88;;;22.00;67.40;;;;;;4880005;29;20120;-63
2021/07/17 06:07:02;;;;;;;7.10;2.70;;;22.10;67.50;;;;;;4879954;29;20393;-64
2021/07/17 06:09:27;;;;;;;7.38;3.08;;;22.00;67.40;;;;;;4879633;29;20033;-63
2021/07/17 06:11:52;;;;;;;5.68;2.72;;;22.00;67.50;;;;;;4885547;29;20028;-63
2021/07/17 06:14:19;;;;;;;8.43;2.97;;;22.10;67.40;;;;;;4881008;29;20438;-63
2021/07/17 06:16:45;;;;;;;7.68;2.95;;;22.00;67.40;;;;;;4885372;29;20028;-64
2021/07/17 06:19:11;;;;;;;7.03;3.20;;;22.00;67.30;;;;;;4887057;29;20031;-63
2021/07/17 06:21:38;;;;;;;6.75;2.70;;;22.10;67.40;;;;;;4885072;29;20036;-63
2021/07/17 06:24:03;;;;;;;5.22;2.83;;;22.10;67.30;;;;;;4884677;29;20100;-63
2021/07/17 06:26:29;;;;;;;4.85;2.38;;;22.10;67.40;;;;;;4879414;29;20124;-63
2021/07/17 06:28:55;;;;;;;6.63;2.85;;;22.10;67.30;;;;;;4879065;29;20021;-63
2021/07/17 06:31:20;;;;;;;9.02;3.22;;;22.10;67.30;;;;;;4879250;29;20040;-64
2021/07/17 06:33:47;;;;;;;6.57;2.65;;;22.10;67.30;;;;;;4879462;29;20029;-63
2021/07/17 06:36:12;;;;;;;6.78;2.85;;;22.10;67.30;;;;;;4879368;29;20085;-63
2021/07/17 06:38:38;;;;;;;5.40;2.40;;;22.10;67.30;;;;;;4880269;29;20421;-63
2021/07/17 06:41:03;;;;;;;6.00;2.95;;;22.10;67.30;;;;;;4883068;29;20037;-63
2021/07/17 06:43:30;;;;;;;5.95;2.50;;;22.10;67.30;;;;;;4883045;29;20052;-63
2021/07/17 06:45:55;;;;;;;6.95;3.28;;;22.10;67.30;;;;;;4883038;29;20041;-63
2021/07/17 06:48:21;;;;;;;6.82;3.15;;;22.10;67.30;;;;;;4882683;29;20100;-63
2021/07/17 06:50:48;;;;;;;5.97;2.85;;;22.10;67.30;;;;;;4881507;29;20025;-63
2021/07/17 06:53:14;;;;;;;7.35;2.78;;;22.10;67.20;;;;;;4882613;29;20032;-63
2021/07/17 06:55:39;;;;;;;6.68;3.15;;;22.10;67.30;;;;;;4882191;29;20033;-63
2021/07/17 06:58:05;;;;;;;6.60;2.83;;;22.10;67.20;;;;;;4882797;29;20043;-63
2021/07/17 07:00:34;;;;;;;7.15;2.85;;;22.10;67.20;;;;;;4882763;29;20025;-63
2021/07/17 07:03:00;;;;;;;8.50;3.10;;;22.10;67.20;;;;;;4884589;29;20169;-62
2021/07/17 07:05:25;;;;;;;6.60;2.83;;;22.10;67.20;;;;;;4882555;29;20037;-63
2021/07/17 07:07:51;;;;;;;6.80;2.95;;;22.10;67.30;;;;;;4881982;29;20354;-63
2021/07/17 07:10:17;;;;;;;5.88;2.88;;;22.10;67.30;;;;;;4881987;29;20156;-63
2021/07/17 07:12:43;;;;;;;7.55;3.38;;;22.10;67.20;;;;;;4881770;29;20029;-63
2021/07/17 07:15:09;;;;;;;7.68;2.83;;;22.10;67.20;;;;;;4881938;29;20503;-63
2021/07/17 07:17:36;;;;;;;6.05;3.00;;;22.10;67.20;;;;;;4882822;29;20029;-63
2021/07/17 07:20:03;;;;;;;7.90;2.92;;;22.10;67.20;;;;;;4881958;29;20497;-63
2021/07/17 07:22:29;;;;;;;7.50;3.28;;;22.10;67.20;;;;;;4882703;29;20033;-63
2021/07/17 07:24:54;;;;;;;10.63;3.30;;;22.10;67.20;;;;;;4882112;29;20040;-62
2021/07/17 07:27:20;;;;;;;7.50;3.05;;;22.10;67.20;;;;;;4882008;29;20108;-62
2021/07/17 07:29:45;;;;;;;7.15;3.35;;;22.10;67.20;;;;;;4880716;29;20121;-62
2021/07/17 07:32:11;;;;;;;7.63;2.97;;;22.10;67.10;;;;;;4882116;29;20041;-63
2021/07/17 07:34:36;;;;;;;7.22;3.10;;;22.10;67.20;;;;;;4882043;29;20426;-63
2021/07/17 07:37:02;;;;;;;6.13;3.00;;;22.10;67.10;;;;;;4881826;29;20082;-62
2021/07/17 07:39:27;;;;;;;5.82;2.95;;;22.10;67.10;;;;;;4881990;29;20037;-63
2021/07/17 07:41:54;;;;;;;9.18;3.35;;;22.10;67.10;;;;;;4881808;29;20030;-62
2021/07/17 07:44:20;;;;;;;6.45;3.13;;;22.10;67.10;;;;;;4881887;29;20040;-63
2021/07/17 07:46:45;;;;;;;6.65;2.92;;;22.20;67.10;;;;;;4881470;29;20048;-63
2021/07/17 07:49:12;;;;;;;6.05;2.92;;;22.20;67.10;;;;;;4881465;29;20116;-63
2021/07/17 07:51:38;;;;;;;7.15;3.40;;;22.20;67.10;;;;;;4880867;29;20029;-63
2021/07/17 07:54:03;;;;;;;7.00;3.10;;;22.10;67.10;;;;;;4881691;29;20024;-63
2021/07/17 07:56:29;;;;;;;6.05;3.03;;;22.20;67.10;;;;;;4881501;29;20037;-63
2021/07/17 07:58:54;;;;;;;9.90;3.50;;;22.20;67.00;;;;;;4881499;29;20021;-63
2021/07/17 08:01:20;;;;;;;6.30;3.00;;;22.20;67.00;;;;;;4881619;29;20067;-63
2021/07/17 08:03:45;;;;;;;8.07;2.85;;;22.20;67.00;;;;;;4881336;29;20053;-63
2021/07/17 08:06:11;;;;;;;6.05;2.78;;;22.20;67.00;;;;;;4880353;29;20143;-63
2021/07/17 08:08:36;;;;;;;7.53;3.35;;;22.20;67.10;;;;;;4881467;29;20037;-63
2021/07/17 08:11:02;;;;;;;7.45;3.40;;;22.20;67.00;;;;;;4881680;29;20025;-63
2021/07/17 08:13:27;;;;;;;7.03;2.95;;;22.20;67.00;;;;;;4881678;29;20033;-62
2021/07/17 08:15:54;;;;;;;7.38;3.30;;;22.20;67.00;;;;;;4881293;29;20104;-63
2021/07/17 08:18:20;;;;;;;6.10;2.58;;;22.20;66.90;;;;;;4881863;29;20624;-63
2021/07/17 08:20:46;;;;;;;6.82;2.47;;;22.30;66.90;;;;;;4891618;29;20045;-63
2021/07/17 08:23:11;;;;;;;8.68;3.30;;;22.20;66.90;;;;;;4886743;29;20032;-63
2021/07/17 08:25:37;;;;;;;8.75;2.92;;;22.20;66.90;;;;;;4881352;29;20045;-63
2021/07/17 08:28:03;;;;;;;6.85;2.85;;;22.30;66.90;;;;;;4883131;29;20033;-63
2021/07/17 08:30:29;;;;;;;6.32;2.92;;;22.30;66.90;;;;;;4882075;29;20085;-63
2021/07/17 08:32:55;;;;;;;7.30;3.38;;;22.30;66.80;;;;;;4881332;29;20406;-63
2021/07/17 08:35:21;;;;;;;8.75;3.00;;;22.30;66.90;;;;;;4880962;29;20477;-62
2021/07/17 08:37:47;;;;;;;6.82;2.88;;;22.30;66.90;;;;;;4880964;29;20140;-63
2021/07/17 08:40:13;;;;;;;7.85;2.95;;;22.30;66.90;;;;;;4881130;29;20025;-63
2021/07/17 08:42:44;;;;;;;8.07;2.53;;;22.30;66.90;;;;;;4880746;29;20485;-63
2021/07/17 08:45:11;;;;;;;11.30;3.55;;;22.30;66.80;;;;;;4880702;29;20503;-63
2021/07/17 08:47:39;;;;;;;7.10;2.90;;;22.30;66.90;;;;;;4880818;29;20073;-63
2021/07/17 08:50:07;;;;;;;6.63;3.08;;;22.30;66.90;;;;;;4880975;29;20029;-62
2021/07/17 08:52:34;;;;;;;7.35;3.13;;;22.30;66.90;;;;;;4880358;29;20033;-63
2021/07/17 08:55:07;;;;;;;7.25;2.78;;;22.30;66.80;;;;;;4880438;29;20036;-63
2021/07/17 08:57:38;;;;;;;6.72;2.67;;;22.40;66.80;;;;;;4880327;29;20025;-63
2021/07/17 09:00:17;;;;;;;5.50;2.67;;;22.40;66.80;;;;;;4879425;29;20112;-63
2021/07/17 09:02:44;;;;;;;6.28;2.95;;;22.40;66.70;;;;;;4879716;29;20449;-63
2021/07/17 09:05:13;;;;;;;9.05;3.03;;;22.30;66.70;;;;;;4881701;29;20130;-63
2021/07/17 09:07:39;;;;;;;7.53;2.72;;;22.40;66.80;;;;;;4883840;29;20430;-64
2021/07/17 09:10:32;;;;;;;8.35;2.97;;;22.40;66.70;;;;;;4881598;29;20033;-63
2021/07/17 09:13:32;;;;;;;6.53;2.80;;;22.40;66.70;;;;;;4880690;29;20052;-63
2021/07/17 09:16:06;;;;;;;7.10;2.85;;;22.40;66.70;;;;;;4882678;29;20033;-63
2021/07/17 09:18:52;;;;;;;8.20;3.10;;;22.40;66.80;;;;;;4881107;29;20033;-63
2021/07/17 09:21:25;;;;;;;7.82;3.03;;;22.40;66.80;;;;;;4880160;29;20032;-63
2021/07/17 09:24:00;;;;;;;7.93;2.58;;;22.40;66.70;;;;;;4879894;29;20088;-63
2021/07/17 09:26:27;;;;;;;6.30;2.80;;;22.40;66.70;;;;;;4879927;29;20068;-63
2021/07/17 09:29:19;;;;;;;7.07;3.03;;;22.50;66.70;;;;;;4879913;29;20103;-63
2021/07/17 09:31:52;;;;;;;7.05;2.67;;;22.40;66.60;;;;;;4878495;29;20040;-63
2021/07/17 09:34:32;;;;;;;6.68;2.90;;;22.40;66.70;;;;;;4879938;29;20426;-63
2021/07/17 09:37:12;;;;;;;5.38;2.65;;;22.40;66.70;;;;;;4879957;29;20056;-63
2021/07/17 09:39:40;;;;;;;10.38;3.38;;;22.40;66.60;;;;;;4879800;29;20611;-63
2021/07/17 09:42:16;;;;;;;6.00;2.55;;;22.50;66.60;;;;;;4879280;29;20025;-63
2021/07/17 09:44:42;;;;;;;7.32;2.78;;;22.50;66.60;;;;;;4879517;29;20033;-63
2021/07/17 09:47:22;;;;;;;6.00;2.65;;;22.40;66.60;;;;;;4879382;29;20704;-63
2021/07/17 09:49:48;;;;;;;6.63;2.90;;;22.50;66.60;;;;;;4879815;29;20109;-63
2021/07/17 09:52:17;;;;;;;5.95;2.97;;;22.50;66.60;;;;;;4882180;29;20385;-63
2021/07/17 09:55:12;;;;;;;8.13;3.45;;;22.50;66.60;;;;;;4885900;29;20108;-63
2021/07/17 09:57:39;;;;;;;5.70;3.00;;;22.50;66.50;;;;;;4885036;29;20501;-63
2021/07/17 10:00:06;;;;;;;7.03;3.10;;;22.50;66.60;;;;;;4879645;29;20533;-63
2021/07/17 10:02:35;;;;;;;6.35;2.88;;;22.50;66.50;;;;;;4879837;29;20401;-63
2021/07/17 10:05:08;;;;;;;6.38;2.80;;;22.50;66.50;;;;;;4879541;29;20029;-63
2021/07/17 10:07:34;;;;;;;7.15;3.00;;;22.50;66.50;;;;;;4879402;29;20029;-63
2021/07/17 10:10:00;;;;;;;5.50;2.45;;;22.50;66.50;;;;;;4879355;29;20048;-63
2021/07/17 10:12:34;;;;;;;7.10;3.03;;;22.50;66.50;;;;;;4879021;29;20112;-63
2021/07/17 10:15:00;;;;;;;7.00;2.78;;;22.50;66.40;;;;;;4878971;29;20422;-63
2021/07/17 10:17:37;;;;;;;6.78;2.38;;;22.60;66.40;;;;;;4879482;29;20112;-63
2021/07/17 10:20:09;;;;;;;5.78;2.80;;;22.60;66.30;;;;;;4879322;29;20139;-63
2021/07/17 10:22:36;;;;;;;5.68;3.03;;;22.60;66.30;;;;;;4877839;29;20366;-63
2021/07/17 10:25:03;;;;;;;7.43;2.53;;;22.60;66.30;;;;;;4879284;29;20037;-63
2021/07/17 10:27:29;;;;;;;7.85;3.05;;;22.60;66.30;;;;;;4879184;29;20036;-63
2021/07/17 10:29:54;;;;;;;6.07;2.70;;;22.60;66.30;;;;;;4877838;29;20500;-63
2021/07/17 10:32:22;;;;;;;6.93;2.78;;;22.60;66.30;;;;;;4879327;29;20077;-63
2021/07/17 10:34:47;;;;;;;6.50;2.72;;;22.60;66.30;;;;;;4879475;29;20368;-63
2021/07/17 10:37:19;;;;;;;6.88;2.90;;;22.60;66.30;;;;;;4879275;29;20040;-63
2021/07/17 10:40:14;;;;;;;5.57;2.63;;;22.60;66.20;;;;;;4879169;29;20386;-63
2021/07/17 10:42:47;;;;;;;;;;;22.60;66.20;;;;;;4879266;29;20049;-63
2021/07/17 10:45:32;;;;;;;6.10;2.60;;;22.70;66.20;;;;;;4877754;29;20343;-63
2021/07/17 10:47:57;;;;;;;6.70;2.70;;;22.70;66.10;;;;;;4879000;29;20029;-63
2021/07/17 10:50:33;;;;;;;6.63;2.80;;;22.70;66.10;;;;;;4879205;29;20041;-63
2021/07/17 10:52:58;;;;;;;6.72;2.63;;;22.70;66.20;;;;;;4878995;29;20077;-63
2021/07/17 10:55:32;;;;;;;5.47;2.58;;;22.70;66.10;;;;;;4878918;29;20025;-63
2021/07/17 10:58:10;;;;;;;5.25;2.55;;;22.70;66.10;;;;;;4878688;29;20037;-63
2021/07/17 11:00:42;;;;;;;6.38;2.50;;;22.80;66.10;;;;;;4878505;29;20473;-63
2021/07/17 11:03:17;;;;;;;5.53;2.42;;;22.80;66.00;;;;;;4876957;29;20053;-63
2021/07/17 11:05:43;;;;;;;6.65;2.60;;;22.80;66.00;;;;;;4878331;29;20051;-63
2021/07/17 11:08:35;;;;;;;6.28;2.60;;;22.80;66.00;;;;;;4878715;29;20108;-62
2021/07/17 11:11:27;;;;;;;6.40;2.70;;;22.80;66.00;;;;;;4878867;29;20056;-63
2021/07/17 11:13:52;;;;;;;5.90;2.53;;;22.90;66.00;;;;;;4878839;29;20029;-63
2021/07/17 11:16:41;;;;;;;8.15;2.78;;;22.90;65.90;;;;;;4878652;29;20045;-63
2021/07/17 11:19:18;;;;;;;8.07;2.60;;;22.90;65.90;;;;;;4878825;29;20047;-63
2021/07/17 11:21:45;;;;;;;5.45;2.45;;;22.90;65.90;;;;;;4880866;29;20033;-63
2021/07/17 11:24:12;;;;;;;6.95;3.13;;;22.90;65.80;;;;;;4883948;29;20021;-63
2021/07/17 11:26:38;;;;;;;5.47;2.58;;;22.90;65.80;;;;;;4889202;29;20393;-63
2021/07/17 11:29:06;;;;;;;7.13;2.60;;;22.90;65.80;;;;;;4887601;29;20029;-63
2021/07/17 11:31:37;;;;;;;6.32;2.92;;;23.00;65.70;;;;;;4884012;29;20040;-63
2021/07/17 11:34:16;;;;;;;5.40;2.30;;;23.00;65.70;;;;;;4885228;29;20028;-63
2021/07/17 11:36:53;;;;;;;5.85;2.58;;;23.00;65.70;;;;;;4881745;29;20389;-63
2021/07/17 11:39:21;;;;;;;5.47;2.53;;;23.00;65.60;;;;;;4883842;29;20025;-64
2021/07/17 11:41:47;;;;;;;4.97;2.58;;;23.10;65.70;;;;;;4881765;29;20062;-63
2021/07/17 11:44:13;;;;;;;4.60;2.15;;;23.10;65.60;;;;;;4881637;29;20029;-63
2021/07/17 11:47:01;;;;;;;6.22;2.58;;;23.10;65.60;;;;;;4881598;29;20048;-63
2021/07/17 11:49:28;;;;;;;5.47;2.55;;;23.10;65.50;;;;;;4881901;29;20077;-63
2021/07/17 11:51:56;;;;;;;4.72;2.33;;;23.10;65.50;;;;;;4882161;29;20033;-63
2021/07/17 11:54:30;;;;;;;6.03;2.50;;;23.20;65.50;;;;;;4881962;29;20116;-64
2021/07/17 11:57:05;;;;;;;5.10;2.35;;;23.20;65.40;;;;;;4881431;29;20037;-63
2021/07/17 11:59:31;;;;;;;5.45;2.67;;;23.20;65.30;;;;;;4881386;29;20053;-63
2021/07/17 12:02:04;;;;;;;5.05;2.15;;;23.30;65.30;;;;;;4881419;29;20128;-63
2021/07/17 12:04:54;;;;;;;5.50;2.17;;;23.30;65.30;;;;;;4881742;29;20096;-64
2021/07/17 12:07:20;;;;;;;6.10;2.63;;;23.30;65.30;;;;;;4878905;29;20041;-63
2021/07/17 12:10:01;;;;;;;4.55;2.40;;;23.40;65.20;;;;;;4883454;29;20107;-63
2021/07/17 12:12:30;;;;;;;5.57;2.13;;;23.40;65.20;;;;;;4884066;29;20032;-63
2021/07/17 12:15:01;;;;;;;5.18;2.30;;;23.40;65.10;;;;;;4881868;29;20085;-63
2021/07/17 12:17:28;;;;;;;4.88;2.28;;;23.50;65.10;;;;;;4881533;29;20025;-63
2021/07/17 12:20:12;;;;;;;5.40;2.60;;;23.50;65.10;;;;;;4881318;29;20077;-63
2021/07/17 12:22:53;;;;;;;5.82;2.30;;;23.50;64.90;;;;;;4881325;29;20029;-64
2021/07/17 12:25:24;;;;;;;5.28;2.30;;;23.50;64.90;;;;;;4881424;29;20037;-63
2021/07/17 12:27:56;;;;;;;6.88;2.80;;;23.60;64.90;;;;;;4881606;29;20029;-63
2021/07/17 12:30:24;;;;;;;5.22;2.28;;;23.60;64.90;;;;;;4882145;29;20029;-64
2021/07/17 12:32:50;;;;;;;5.43;2.38;;;23.70;64.80;;;;;;4881409;29;20120;-63
2021/07/17 12:35:22;;;;;;;4.55;2.17;;;23.70;64.70;;;;;;4881824;29;20104;-63
2021/07/17 12:37:48;;;;;;;5.85;2.50;;;23.70;64.70;;;;;;4883018;29;20040;-63
2021/07/17 12:40:14;;;;;;;4.68;1.90;;;23.80;64.50;;;;;;4883307;29;20389;-63
2021/07/17 12:42:48;;;;;;;4.95;2.40;;;23.80;64.60;;;;;;4886600;29;20137;-63
2021/07/17 12:45:16;;;;;;;4.60;2.15;;;23.80;64.60;;;;;;4882885;29;20029;-63
2021/07/17 12:47:53;;;;;;;5.03;2.22;;;23.90;64.50;;;;;;4883484;29;20037;-63
2021/07/17 12:50:26;;;;;;;7.97;2.75;;;23.90;64.40;;;;;;4881669;29;20029;-64
2021/07/17 12:53:13;;;;;;;8.48;2.72;;;24.00;64.40;;;;;;4881596;29;20500;-63